createdAt,value
2023-01-01T00:04:41.333Z,94907.16
2023-01-01T00:10:37.324Z,94648.41
2023-01-01T00:16:19.388Z,94389.69
2023-01-01T00:21:57.360Z,94389.69
2023-01-01T00:27:34.340Z,94389.69
2023-01-01T00:33:11.338Z,94389.69
2023-01-01T00:38:50.321Z,94389.69
2023-01-01T00:44:27.334Z,94648.41
2023-01-01T00:50:04.328Z,94389.69
2023-01-01T00:55:42.333Z,94389.69
2023-01-01T01:01:19.403Z,94389.69
2023-01-01T01:06:56.365Z,94389.69
2023-01-01T01:12:34.339Z,94648.41
2023-01-01T01:18:11.328Z,94389.69
2023-01-01T01:23:49.317Z,94389.69
2023-01-01T01:29:27.332Z,94389.69
2023-01-01T01:35:04.316Z,94130.97
2023-01-01T01:40:41.323Z,94389.69
2023-01-01T01:46:22.399Z,94389.69
2023-01-01T01:52:00.326Z,94389.69
2023-01-01T01:57:38.330Z,94389.69
2023-01-01T02:03:21.342Z,94648.41
2023-01-01T02:08:58.314Z,94648.41
2023-01-01T02:14:35.323Z,94648.41
2023-01-01T02:20:31.306Z,94648.41
2023-01-01T02:26:25.319Z,94389.69
2023-01-01T02:32:08.332Z,94130.97
2023-01-01T02:37:45.346Z,93872.25
2023-01-01T02:43:24.992Z,93872.25
2023-01-01T02:49:10.233Z,93613.56
2023-01-01T02:54:53.315Z,93613.56
2023-01-01T03:00:36.299Z,93096.25
2023-01-01T03:06:30.313Z,93613.56
2023-01-01T03:12:12.338Z,93354.91
2023-01-01T03:17:53.356Z,93354.91
2023-01-01T03:23:36.340Z,93096.25
2023-01-01T03:29:17.334Z,93096.25
2023-01-01T03:34:58.325Z,93096.25
2023-01-01T03:40:37.305Z,93096.25
2023-01-01T03:46:16.340Z,93354.91
2023-01-01T03:52:11.307Z,93354.91
2023-01-01T03:57:59.295Z,93354.91
2023-01-01T04:03:38.324Z,93613.56
2023-01-01T04:09:18.350Z,93613.56
2023-01-01T04:14:57.320Z,93613.56
2023-01-01T04:20:35.285Z,93613.56
2023-01-01T04:26:12.316Z,93613.56
2023-01-01T04:31:50.283Z,93872.25
2023-01-01T04:37:27.371Z,93872.25
2023-01-01T04:43:04.356Z,93872.25
2023-01-01T04:48:44.306Z,93872.25
2023-01-01T04:54:21.331Z,93872.25
2023-01-01T04:59:58.308Z,93872.25
2023-01-01T05:05:36.301Z,93613.56
2023-01-01T05:11:16.304Z,93354.91
2023-01-01T05:16:55.420Z,93096.25
2023-01-01T05:22:33.300Z,92837.63
2023-01-01T05:28:10.325Z,92579.03
2023-01-01T05:33:47.346Z,92837.63
2023-01-01T05:39:27.310Z,92579.03
2023-01-01T05:45:04.299Z,92579.03
2023-01-01T05:50:41.292Z,92579.03
2023-01-01T05:56:21.325Z,92579.03
2023-01-01T06:01:58.398Z,92579.03
2023-01-01T06:07:35.336Z,92579.03
2023-01-01T06:13:13.687Z,92579.03
2023-01-01T06:18:50.293Z,92579.03
2023-01-01T06:24:27.305Z,92320.41
2023-01-01T06:30:05.306Z,92579.03
2023-01-01T06:35:42.272Z,92579.03
2023-01-01T06:41:21.282Z,92579.03
2023-01-01T06:46:59.297Z,92579.03
2023-01-01T06:52:36.304Z,92579.03
2023-01-01T06:58:16.336Z,92579.03
2023-01-01T07:03:55.396Z,92579.03
2023-01-01T07:09:32.418Z,92320.41
2023-01-01T07:15:09.315Z,92579.03
2023-01-01T07:20:47.265Z,92579.03
2023-01-01T07:26:24.349Z,92320.41
2023-01-01T07:32:01.370Z,92320.41
2023-01-01T07:37:39.313Z,92320.41
2023-01-01T07:43:16.388Z,92320.41
2023-01-01T07:48:53.279Z,92579.03
2023-01-01T07:54:31.325Z,92320.41
2023-01-01T08:00:08.311Z,92320.41
2023-01-01T08:05:46.287Z,92320.41
2023-01-01T08:11:24.353Z,92320.41
2023-01-01T08:17:01.354Z,92579.03
2023-01-01T08:22:38.402Z,92579.03
2023-01-01T08:28:16.319Z,92579.03
2023-01-01T08:33:54.310Z,92837.63
2023-01-01T08:39:55.611Z,92837.63
2023-01-01T08:45:36.355Z,93354.91
2023-01-01T08:51:31.361Z,94130.97
2023-01-01T08:57:09.281Z,94907.16
2023-01-01T09:02:49.352Z,94907.16
2023-01-01T09:08:26.304Z,95424.69
2023-01-01T09:14:10.609Z,95165.91
2023-01-01T09:19:54.297Z,94907.16
2023-01-01T09:25:31.268Z,95424.69
2023-01-01T09:31:08.340Z,95424.69
2023-01-01T09:36:47.255Z,95424.69
2023-01-01T09:42:46.341Z,95942.31
2023-01-01T09:48:28.288Z,95942.31
2023-01-01T09:54:11.349Z,95683.50
2023-01-01T09:59:48.280Z,95165.91
2023-01-01T10:05:36.314Z,95424.69
2023-01-01T10:11:23.299Z,94907.16
2023-01-01T10:17:03.319Z,95424.69
2023-01-01T10:22:42.310Z,95165.91
2023-01-01T10:28:34.554Z,94907.16
2023-01-01T10:34:21.268Z,94648.41
2023-01-01T10:40:01.457Z,95165.91
2023-01-01T10:45:45.393Z,94907.16
2023-01-01T10:51:31.297Z,94130.97
2023-01-01T10:57:08.374Z,93096.25
2023-01-01T11:02:46.473Z,92579.03
2023-01-01T11:08:33.310Z,91027.66
2023-01-01T11:14:29.444Z,89993.75
2023-01-01T11:20:10.651Z,90510.69
2023-01-01T11:25:47.288Z,90252.22
2023-01-01T11:31:33.328Z,90769.16
2023-01-01T11:37:26.270Z,90252.22
2023-01-01T11:43:07.495Z,90769.16
2023-01-01T11:48:47.323Z,90769.16
2023-01-01T11:54:39.324Z,90769.16
2023-01-01T12:00:12.343Z,88960.13
2023-01-01T12:06:01.249Z,89218.50
2023-01-01T12:11:45.243Z,89476.91
2023-01-01T12:17:31.270Z,89993.75
2023-01-01T12:23:10.313Z,89476.91
2023-01-01T12:28:59.244Z,88701.75
2023-01-01T12:34:43.262Z,88960.13
2023-01-01T12:40:55.483Z,89218.50
2023-01-01T12:46:55.356Z,89218.50
2023-01-01T12:52:50.326Z,88701.75
2023-01-01T12:58:36.527Z,88701.75
2023-01-01T13:04:19.337Z,89218.50
2023-01-01T13:10:01.296Z,88185.06
2023-01-01T13:16:00.336Z,87926.75
2023-01-01T13:21:47.250Z,87668.47
2023-01-01T13:28:25.435Z,87151.91
2023-01-01T13:34:49.246Z,86893.66
2023-01-01T13:40:59.251Z,86893.66
2023-01-01T13:46:45.278Z,86377.19
2023-01-01T13:52:48.805Z,86119.00
2023-01-01T13:59:10.384Z,85860.81
2023-01-01T14:04:58.355Z,85344.50
2023-01-01T14:10:42.295Z,84828.25
2023-01-01T14:16:23.264Z,84828.25
2023-01-01T14:22:03.789Z,84570.13
2023-01-01T14:27:55.623Z,84053.97
2023-01-01T14:33:40.271Z,83537.88
2023-01-01T14:39:35.754Z,83021.88
2023-01-01T14:45:12.214Z,82763.88
2023-01-01T14:50:50.334Z,82505.91
2023-01-01T14:56:38.404Z,82763.88
2023-01-01T15:02:17.421Z,82247.97
2023-01-01T15:07:56.277Z,82247.97
2023-01-01T15:13:36.263Z,81990.03
2023-01-01T15:19:34.747Z,81732.09
2023-01-01T15:25:15.430Z,81474.19
2023-01-01T15:31:32.429Z,81732.09
2023-01-01T15:37:22.230Z,81216.31
2023-01-01T15:43:01.220Z,81216.31
2023-01-01T15:48:51.222Z,80958.44
2023-01-01T15:54:32.295Z,80700.59
2023-01-01T16:00:09.245Z,80442.75
2023-01-01T16:05:51.280Z,80184.91
2023-01-01T16:11:38.225Z,80184.91
2023-01-01T16:17:15.252Z,80184.91
2023-01-01T16:22:53.227Z,80184.91
2023-01-01T16:28:30.245Z,79927.13
2023-01-01T16:34:02.260Z,79927.13
2023-01-01T16:39:40.260Z,79927.13
2023-01-01T16:45:17.209Z,79669.34
2023-01-01T16:50:54.213Z,79411.56
2023-01-01T16:56:33.262Z,79669.34
2023-01-01T17:02:10.344Z,79669.34
2023-01-01T17:07:47.264Z,79411.56
2023-01-01T17:13:25.240Z,79669.34
2023-01-01T17:19:19.566Z,79927.13
2023-01-01T17:24:56.211Z,79411.56
2023-01-01T17:30:34.202Z,79411.56
2023-01-01T17:36:11.221Z,79411.56
2023-01-01T17:41:48.209Z,79153.81
2023-01-01T17:47:30.999Z,78896.06
2023-01-01T17:53:13.927Z,79153.81
2023-01-01T17:58:51.215Z,78896.06
2023-01-01T18:04:29.206Z,78896.06
2023-01-01T18:10:06.210Z,79153.81
2023-01-01T18:15:43.267Z,78896.06
2023-01-01T18:21:26.202Z,78638.34
2023-01-01T18:27:03.206Z,78638.34
2023-01-01T18:32:33.185Z,78896.06
2023-01-01T18:38:12.212Z,78896.06
2023-01-01T18:43:49.200Z,78896.06
2023-01-01T18:49:26.192Z,78638.34
2023-01-01T18:55:14.213Z,78380.63
2023-01-01T19:00:51.233Z,78638.34
2023-01-01T19:06:40.196Z,78380.63
2023-01-01T19:12:25.179Z,78638.34
2023-01-01T19:18:02.223Z,78380.63
2023-01-01T19:23:40.198Z,78122.94
2023-01-01T19:29:27.200Z,78380.63
2023-01-01T19:35:04.245Z,78380.63
2023-01-01T19:40:41.213Z,78380.63
2023-01-01T19:46:20.241Z,78380.63
2023-01-01T19:51:57.250Z,78380.63
2023-01-01T19:57:34.195Z,78122.94
2023-01-01T20:09:09.231Z,77865.28
2023-01-01T20:14:46.192Z,77865.28
2023-01-01T20:20:25.207Z,77865.28
2023-01-01T20:25:55.247Z,77607.63
2023-01-01T20:31:26.271Z,77865.28
2023-01-01T20:37:21.206Z,77349.97
2023-01-01T20:42:58.184Z,77865.28
2023-01-01T20:48:39.168Z,77865.28
2023-01-01T20:54:18.185Z,77865.28
2023-01-01T20:59:55.252Z,77865.28
2023-01-01T21:05:40.390Z,77865.28
2023-01-01T21:11:18.203Z,77865.28
2023-01-01T21:17:00.464Z,78122.94
2023-01-01T21:22:39.164Z,78380.63
2023-01-01T21:28:25.589Z,78380.63
2023-01-01T21:34:43.836Z,78122.94
2023-01-01T21:41:12.001Z,77607.63
2023-01-01T21:47:02.094Z,77865.28
2023-01-01T21:53:00.236Z,77865.28
2023-01-01T21:59:04.364Z,77607.63
2023-01-01T22:04:49.200Z,77865.28
2023-01-01T22:10:53.750Z,77865.28
2023-01-01T22:16:51.255Z,77607.63
2023-01-01T22:22:48.176Z,77865.28
2023-01-01T22:28:32.175Z,77607.63
2023-01-01T22:34:42.171Z,77607.63
2023-01-01T22:40:31.173Z,77865.28
2023-01-01T22:46:09.213Z,77865.28
2023-01-01T22:51:53.170Z,77865.28
2023-01-01T22:57:31.173Z,77865.28
2023-01-01T23:03:08.292Z,77865.28
2023-01-01T23:08:50.886Z,78122.94
2023-01-01T23:14:46.161Z,77607.63
2023-01-01T23:20:24.161Z,77607.63
2023-01-01T23:26:01.175Z,77865.28
2023-01-01T23:31:41.232Z,77865.28
2023-01-01T23:37:18.143Z,77607.63
2023-01-01T23:42:55.151Z,77607.63
2023-01-01T23:48:34.138Z,77607.63
2023-01-01T23:54:11.157Z,77865.28
2023-01-01T23:59:48.165Z,77865.28
